Time;durP1;ratioP1;P1;durP2;ratioP2;P2;SDS_P1;SDS_P2;PMS_P1;PMS_P2;Temp;Humidity;BMP_temperature;BMP_pressure;BME280_temperature;BME280_humidity;BME280_pressure;Samples;Min_cycle;Max_cycle;Signal;HPM_P1;HPM_P2
2023/05/26 07:02:28;;;;;;;30.67;22.48;;;26.00;99.90;;;;;;6251796;23;20020;-87
2023/05/26 07:05:14;;;;;;;24.70;22.30;;;26.10;99.90;;;;;;6204649;23;20004;-93
2023/05/26 07:07:40;;;;;;;24.38;22.58;;;26.40;99.90;;;;;;6198996;23;20489;-78
2023/05/26 14:04:29;;;;;;;25.50;23.73;;;25.60;99.90;;;;;;6244380;22;20079;-92
2023/05/26 14:06:56;;;;;;;26.00;24.10;;;25.70;99.90;;;;;;6225738;22;20011;-92
2023/05/26 14:09:26;;;;;;;26.40;24.30;;;26.00;99.90;;;;;;6226470;22;20007;-94
2023/05/26 14:11:54;;;;;;;25.63;23.80;;;26.10;99.90;;;;;;6250873;22;20015;-94
2023/05/26 14:14:20;;;;;;;25.77;23.88;;;26.30;99.90;;;;;;6225250;22;20107;-93
2023/05/26 14:16:47;;;;;;;25.95;24.15;;;26.30;99.90;;;;;;6225702;22;20008;-93
2023/05/26 14:19:14;;;;;;;24.88;23.17;;;25.90;99.90;;;;;;6251013;22;20004;-91
2023/05/26 14:21:44;;;;;;;25.88;23.65;;;25.90;99.90;;;;;;6226136;22;20058;-93
2023/05/26 14:24:11;;;;;;;25.98;24.27;;;26.00;99.90;;;;;;6225281;22;20015;-93
2023/05/26 14:26:38;;;;;;;25.40;23.70;;;25.80;99.90;;;;;;6225456;22;20042;-94
2023/05/26 14:29:04;;;;;;;26.90;24.50;;;25.80;99.90;;;;;;6225783;22;20035;-94
2023/05/26 14:31:37;;;;;;;25.52;23.73;;;25.80;99.90;;;;;;6225190;22;20007;-92
2023/05/26 14:34:04;;;;;;;25.52;23.73;;;25.70;99.90;;;;;;6225229;22;20023;-94
2023/05/26 14:36:31;;;;;;;26.58;23.88;;;25.60;99.90;;;;;;6225299;22;20087;-93
2023/05/26 14:39:00;;;;;;;26.45;24.38;;;25.70;99.90;;;;;;6225350;22;20039;-94
2023/05/26 14:41:26;;;;;;;25.35;23.48;;;25.90;99.90;;;;;;6251134;22;20081;-92
2023/05/26 14:43:53;;;;;;;25.17;23.33;;;25.80;99.90;;;;;;6225959;22;20030;-95
2023/05/26 14:46:20;;;;;;;25.55;23.88;;;25.60;99.90;;;;;;6251855;22;20008;-95
2023/05/26 14:48:47;;;;;;;25.80;24.00;;;25.70;99.90;;;;;;6227622;22;20456;-95
2023/05/26 14:51:14;;;;;;;25.90;24.00;;;25.80;99.90;;;;;;6227310;22;20008;-95
2023/05/26 14:53:42;;;;;;;26.25;24.10;;;25.70;99.90;;;;;;6227653;22;20066;-94
2023/05/26 14:56:09;;;;;;;25.30;23.50;;;25.60;99.90;;;;;;6226903;22;20003;-95
2023/05/26 14:58:36;;;;;;;25.30;23.48;;;25.60;99.90;;;;;;6227440;22;20027;-94
2023/05/26 15:01:03;;;;;;;26.55;24.33;;;25.90;99.90;;;;;;6227069;22;20015;-93
2023/05/26 15:03:29;;;;;;;25.95;24.17;;;25.80;99.90;;;;;;6227025;22;20007;-93
2023/05/26 15:05:56;;;;;;;25.83;23.92;;;25.80;99.90;;;;;;6208920;23;20442;-95
2023/05/26 15:08:23;;;;;;;26.58;24.67;;;25.60;99.90;;;;;;6221948;23;20009;-93
2023/05/26 15:10:49;;;;;;;26.58;24.67;;;25.60;99.90;;;;;;6222520;23;20012;-94
2023/05/26 15:13:16;;;;;;;25.77;23.88;;;25.60;99.90;;;;;;6196571;23;20087;-94
2023/05/26 15:15:42;;;;;;;26.00;23.75;;;25.80;99.90;;;;;;6222104;23;20426;-93
2023/05/26 15:18:09;;;;;;;26.50;24.40;;;25.70;99.90;;;;;;6247132;23;20008;-92
2023/05/26 15:20:37;;;;;;;25.67;23.77;;;25.60;99.90;;;;;;6196702;23;20012;-95
2023/05/26 15:23:04;;;;;;;26.00;24.15;;;25.60;99.90;;;;;;6246758;23;20035;-92
2023/05/26 15:25:30;;;;;;;25.90;24.00;;;25.40;99.90;;;;;;6247109;22;20000;-94
2023/05/26 15:27:57;;;;;;;26.00;24.10;;;25.40;99.90;;;;;;6246670;23;20007;-92
2023/05/26 15:30:24;;;;;;;25.88;23.98;;;25.40;99.90;;;;;;6247205;23;20001;-93
2023/05/26 15:32:51;;;;;;;26.45;24.42;;;25.30;99.90;;;;;;6246990;23;20008;-95
2023/05/26 15:35:19;;;;;;;25.95;24.15;;;25.10;99.90;;;;;;6246488;22;20024;-95
2023/05/26 15:37:46;;;;;;;26.25;24.38;;;25.20;99.90;;;;;;6246761;23;20026;-92
2023/05/26 15:40:16;;;;;;;26.90;24.90;;;25.20;99.90;;;;;;6221816;23;20008;-92
2023/05/26 15:42:42;;;;;;;26.77;24.70;;;25.30;99.90;;;;;;6246596;23;20024;-94
2023/05/26 15:45:09;;;;;;;26.33;24.48;;;25.30;99.90;;;;;;6246560;23;20038;-93
2023/05/26 15:47:36;;;;;;;26.10;24.08;;;25.30;99.90;;;;;;6196425;23;20360;-93
2023/05/26 15:50:06;;;;;;;27.17;24.77;;;25.20;99.90;;;;;;6221447;23;20008;-95
2023/05/26 15:52:32;;;;;;;25.08;23.38;;;25.10;99.90;;;;;;6221465;23;20004;-94
2023/05/26 15:54:59;;;;;;;25.55;23.80;;;25.10;99.90;;;;;;6246558;23;20418;-93
2023/05/26 15:57:25;;;;;;;25.63;23.73;;;25.10;99.90;;;;;;6247496;22;20008;-93
2023/05/26 15:59:52;;;;;;;24.85;23.05;;;25.10;99.90;;;;;;6248705;23;20011;-94
2023/05/26 16:02:22;;;;;;;25.55;23.75;;;25.10;99.90;;;;;;6227967;23;20009;-93
2023/05/26 16:04:51;;;;;;;24.95;23.08;;;25.00;99.90;;;;;;6248604;23;20008;-93
2023/05/26 16:07:18;;;;;;;25.55;23.38;;;24.90;99.90;;;;;;6246493;22;20012;-94
2023/05/26 16:09:45;;;;;;;25.35;23.50;;;24.70;99.90;;;;;;6246448;23;20437;-93
2023/05/26 16:12:12;;;;;;;25.17;23.38;;;24.60;99.90;;;;;;6246688;23;20004;-93
2023/05/26 16:14:39;;;;;;;24.70;23.10;;;24.70;99.90;;;;;;6246235;23;20039;-94
2023/05/26 16:17:05;;;;;;;25.35;23.45;;;24.70;99.90;;;;;;6246031;22;20001;-94
2023/05/26 16:19:32;;;;;;;25.05;23.08;;;24.70;99.90;;;;;;6247360;23;20012;-93
2023/05/26 16:21:58;;;;;;;24.95;22.95;;;24.70;99.90;;;;;;6246572;23;20000;-92
2023/05/26 16:24:28;;;;;;;25.05;23.10;;;24.60;99.90;;;;;;6220921;23;20744;-93
2023/05/26 16:26:56;;;;;;;25.65;23.45;;;24.50;99.90;;;;;;6220995;22;20004;-96
2023/05/26 16:29:23;;;;;;;24.25;22.30;;;24.40;99.90;;;;;;6245937;23;20015;-94
2023/05/26 16:31:53;;;;;;;25.25;22.65;;;24.40;99.90;;;;;;6246170;23;20008;-94
2023/05/26 16:34:19;;;;;;;23.52;21.85;;;24.40;99.90;;;;;;6195758;23;20085;-92
2023/05/26 16:36:49;;;;;;;23.75;21.88;;;24.20;99.90;;;;;;6246247;22;20090;-91
2023/05/26 16:39:16;;;;;;;24.42;22.13;;;24.00;99.90;;;;;;6249259;23;20012;-92
2023/05/26 16:44:25;;;;;;;23.42;21.58;;;23.80;99.90;;;;;;6248035;22;20229;-93
2023/05/26 16:46:55;;;;;;;22.70;21.10;;;23.80;99.90;;;;;;6253469;22;20091;-92
2023/05/26 16:49:22;;;;;;;23.33;21.30;;;23.80;99.90;;;;;;6222208;23;20429;-93
2023/05/26 16:51:51;;;;;;;23.58;21.65;;;23.80;99.90;;;;;;6195076;23;20441;-92
2023/05/26 16:54:25;;;;;;;22.40;20.65;;;23.80;99.90;;;;;;6196260;23;20509;-94
2023/05/26 16:56:52;;;;;;;22.35;20.60;;;23.80;99.90;;;;;;6196236;23;20422;-94
2023/05/26 16:59:21;;;;;;;22.48;20.67;;;23.80;99.90;;;;;;6196892;23;20004;-94
2023/05/26 17:02:04;;;;;;;22.15;20.48;;;23.80;99.90;;;;;;6195867;23;20084;-91
2023/05/26 17:15:55;;;;;;;22.13;20.17;;;23.60;99.90;;;;;;6278122;22;20035;-92
2023/05/26 17:22:18;;;;;;;22.73;20.80;;;23.50;99.90;;;;;;6266888;22;20026;-93
2023/05/26 17:31:18;;;;;;;22.80;20.83;;;23.20;99.90;;;;;;6173500;22;20410;-93
2023/05/26 17:34:27;;;;;;;23.80;21.80;;;23.00;99.90;;;;;;6221237;23;20016;-94
2023/05/26 17:42:26;;;;;;;25.25;23.25;;;22.80;99.90;;;;;;6248577;22;20016;-92
2023/05/26 17:55:18;;;;;;;24.25;22.20;;;22.40;99.90;;;;;;6155886;23;20089;-92
2023/05/26 17:58:24;;;;;;;;;;;;;;;;;;;;;
2023/05/26 18:01:23;;;;;;;23.83;21.77;;;22.00;99.90;;;;;;6126197;23;20375;-93
2023/05/26 18:04:15;;;;;;;25.35;22.50;;;21.90;99.90;;;;;;5991046;23;20090;-91
2023/05/26 18:07:23;;;;;;;23.65;21.92;;;21.90;99.90;;;;;;5986589;23;20016;-91
2023/05/26 18:10:01;;;;;;;24.38;21.73;;;21.90;99.90;;;;;;5986894;23;20012;-95
2023/05/26 18:12:33;;;;;;;23.63;21.10;;;21.80;99.90;;;;;;5987037;23;20012;-94
2023/05/26 18:15:09;;;;;;;24.35;22.17;;;21.80;99.90;;;;;;6010747;23;20023;-93
2023/05/26 18:31:10;;;;;;;;;;;;;;;;;;;;;
2023/05/26 18:41:03;;;;;;;22.80;20.85;;;21.50;99.90;;;;;;6248805;23;20028;-92
2023/05/26 18:44:40;;;;;;;22.25;20.13;;;21.50;99.90;;;;;;6200524;23;20008;-92
2023/05/26 18:46:48;;;;;;;20.88;18.60;;;21.40;99.90;;;;;;6217488;23;20012;-92
2023/05/26 18:49:26;;;;;;;21.50;18.38;;;21.30;99.90;;;;;;6218677;23;20050;-94
2023/05/26 18:52:16;;;;;;;19.98;18.13;;;21.20;99.90;;;;;;6227261;23;20004;-94
2023/05/26 18:55:40;;;;;;;;;;;;;;;;;;;;;
2023/05/26 18:58:51;;;;;;;19.90;17.20;;;21.10;99.90;;;;;;6014517;23;20086;-93
2023/05/26 19:16:41;;;;;;;19.13;15.70;;;20.80;99.90;;;;;;6255743;22;20023;-93
2023/05/26 19:37:39;;;;;;;17.33;15.60;;;20.50;99.90;;;;;;6261711;22;21025;31
2023/05/26 19:53:43;;;;;;;17.67;15.80;;;20.50;99.90;;;;;;6161718;23;20040;-91
2023/05/26 19:56:25;;;;;;;17.90;15.93;;;20.40;99.90;;;;;;6135879;23;20017;-93
2023/05/26 20:05:21;;;;;;;22.20;16.13;;;20.40;99.90;;;;;;6251393;22;20545;-92
2023/05/26 20:36:57;;;;;;;18.55;15.15;;;20.10;99.90;;;;;;6256426;22;20024;-91
2023/05/26 20:39:30;;;;;;;22.30;15.07;;;20.10;99.90;;;;;;6167285;23;20516;-93
2023/05/26 20:41:56;;;;;;;23.67;14.93;;;20.10;99.90;;;;;;6191237;23;20084;-93
2023/05/26 20:44:26;;;;;;;16.33;14.82;;;20.10;99.90;;;;;;6190668;23;20126;-93
2023/05/26 20:46:52;;;;;;;16.27;14.85;;;20.10;99.90;;;;;;6184915;23;20431;-93
2023/05/26 20:49:19;;;;;;;18.60;15.05;;;20.00;99.90;;;;;;6192490;23;20008;-92
2023/05/26 20:52:15;;;;;;;16.55;14.65;;;20.10;99.90;;;;;;6192089;23;20323;-93
2023/05/26 20:55:01;;;;;;;20.75;14.63;;;20.00;99.90;;;;;;6190337;23;20020;-91
2023/05/26 20:57:47;;;;;;;21.23;14.57;;;19.90;99.90;;;;;;6190852;23;20004;-92
2023/05/26 21:00:15;;;;;;;19.33;13.70;;;19.90;99.90;;;;;;6190777;23;20019;-93
2023/05/26 21:03:38;;;;;;;23.02;14.05;;;19.90;99.90;;;;;;6191162;23;20012;-92
2023/05/26 21:06:28;;;;;;;16.88;13.77;;;19.80;99.90;;;;;;6072860;23;20336;-93
2023/05/26 21:12:58;;;;;;;21.42;14.07;;;19.70;99.90;;;;;;5982768;23;20043;-92
2023/05/26 21:15:33;;;;;;;18.77;13.80;;;19.60;99.90;;;;;;5966540;23;20429;-94
2023/05/26 21:18:13;;;;;;;15.30;13.20;;;19.60;99.90;;;;;;6047058;23;20157;-92
2023/05/26 21:21:06;;;;;;;22.60;13.15;;;19.50;99.90;;;;;;6043629;23;20147;-93
2023/05/26 21:23:32;;;;;;;20.70;14.38;;;19.50;99.90;;;;;;6020326;23;20007;-93
2023/05/26 21:26:15;;;;;;;23.55;13.75;;;19.40;99.90;;;;;;6020385;23;20011;-93
2023/05/26 21:32:32;;;;;;;;;;;19.50;99.90;;;;;;6040069;23;20457;-94
2023/05/26 21:39:30;;;;;;;;;;;;;;;;;;;;;
2023/05/26 21:43:08;;;;;;;21.85;13.10;;;19.60;99.90;;;;;;6010563;23;20086;-94
2023/05/26 21:50:03;;;;;;;19.30;13.38;;;19.70;99.90;;;;;;5927261;24;20089;-95
2023/05/26 21:52:36;;;;;;;20.20;13.02;;;19.60;99.90;;;;;;5882074;24;20013;-92
2023/05/26 21:55:03;;;;;;;20.02;13.88;;;19.50;99.90;;;;;;5882233;24;20025;-93
2023/05/26 21:57:32;;;;;;;20.08;14.10;;;19.50;99.90;;;;;;5873534;24;20008;-92
2023/05/26 22:00:02;;;;;;;22.40;14.07;;;19.30;99.90;;;;;;5929829;24;20018;-92
2023/05/26 22:02:30;;;;;;;18.73;14.45;;;19.30;99.90;;;;;;5941363;24;20099;-92
2023/05/26 22:05:17;;;;;;;27.63;15.00;;;19.20;99.90;;;;;;5939581;24;20004;-92
2023/05/26 22:07:46;;;;;;;23.83;14.63;;;19.20;99.90;;;;;;5938550;24;20346;-92
2023/05/26 22:10:14;;;;;;;19.42;14.10;;;19.20;99.90;;;;;;5937833;24;20035;-94
2023/05/26 22:12:43;;;;;;;24.23;13.88;;;19.20;99.90;;;;;;5960769;24;20012;-91
2023/05/26 22:15:10;;;;;;;17.10;13.70;;;19.10;99.90;;;;;;5944158;23;20415;-94
2023/05/26 22:17:43;;;;;;;18.23;13.40;;;19.10;99.90;;;;;;5988760;23;20031;-93
2023/05/26 22:20:28;;;;;;;;;;;;;;;;;;;;;
2023/05/26 22:23:04;;;;;;;28.98;14.77;;;19.00;99.90;;;;;;6031239;23;20010;-92
2023/05/26 22:25:41;;;;;;;24.58;15.05;;;19.00;99.90;;;;;;6062519;23;20084;-92
2023/05/26 22:32:42;;;;;;;;;;;;;;;;;;;;;
2023/05/26 22:39:51;;;;;;;24.77;14.20;;;18.80;99.90;;;;;;6057272;23;20026;-95
2023/05/26 22:42:34;;;;;;;17.58;14.90;;;18.80;99.90;;;;;;6110289;23;20009;-94
2023/05/26 22:45:47;;;;;;;;;;;;;;;;;;;;;
2023/05/26 22:51:54;;;;;;;27.40;13.73;;;18.80;99.90;;;;;;5987082;23;20091;-93
2023/05/26 22:54:21;;;;;;;21.48;14.73;;;18.90;99.90;;;;;;5987966;23;20035;-91
2023/05/26 22:56:48;;;;;;;25.75;13.68;;;19.00;99.90;;;;;;5988509;23;20072;-93
2023/05/26 22:59:17;;;;;;;24.92;13.88;;;19.00;99.90;;;;;;5988200;23;20008;-91
2023/05/26 23:01:46;;;;;;;22.55;13.63;;;19.00;99.90;;;;;;5983334;24;20008;-92
2023/05/26 23:04:14;;;;;;;22.30;13.63;;;19.00;99.90;;;;;;5937466;24;20012;-93
2023/05/26 23:06:40;;;;;;;19.95;13.27;;;19.10;99.90;;;;;;5930785;24;20068;-92
2023/05/26 23:09:07;;;;;;;22.08;13.55;;;19.10;99.90;;;;;;5937200;24;20016;-93
2023/05/26 23:11:36;;;;;;;25.00;13.13;;;19.10;99.90;;;;;;5937051;24;20428;-91
2023/05/26 23:14:03;;;;;;;21.70;12.93;;;19.10;99.90;;;;;;5960486;24;20016;-93
2023/05/26 23:16:30;;;;;;;20.85;13.57;;;19.10;99.90;;;;;;5937484;24;20013;-92
2023/05/26 23:18:56;;;;;;;21.60;12.82;;;19.10;99.90;;;;;;6053541;23;20093;-93
2023/05/26 23:21:28;;;;;;;26.13;12.40;;;19.10;99.90;;;;;;6102638;23;20433;-90
2023/05/26 23:23:55;;;;;;;20.23;12.70;;;19.00;99.90;;;;;;6101826;23;20026;-91
2023/05/26 23:26:21;;;;;;;25.42;13.63;;;19.00;99.90;;;;;;6102174;23;20072;-92
2023/05/26 23:28:47;;;;;;;25.33;12.93;;;19.10;99.90;;;;;;6169618;23;20072;-92
2023/05/26 23:31:17;;;;;;;23.40;11.55;;;19.10;99.90;;;;;;6199530;23;20039;-92
2023/05/26 23:33:43;;;;;;;28.52;13.32;;;19.10;99.90;;;;;;6166636;23;20019;-92
2023/05/26 23:36:10;;;;;;;22.95;11.77;;;19.10;99.90;;;;;;6184221;23;20019;-92
2023/05/26 23:38:37;;;;;;;24.08;12.27;;;19.10;99.90;;;;;;6166519;23;20120;-91
2023/05/26 23:41:04;;;;;;;24.50;11.82;;;19.00;99.90;;;;;;6191765;23;20454;-93
2023/05/26 23:43:34;;;;;;;18.73;11.93;;;19.00;99.90;;;;;;6166428;23;20083;-91
2023/05/26 23:46:00;;;;;;;23.48;11.45;;;19.00;99.90;;;;;;6182364;23;20013;-91
2023/05/26 23:48:27;;;;;;;19.98;11.65;;;19.00;99.90;;;;;;6166771;23;20004;-92
2023/05/26 23:50:53;;;;;;;19.42;12.13;;;19.00;99.90;;;;;;6166720;23;20036;-91
2023/05/26 23:53:20;;;;;;;20.50;12.82;;;19.00;99.90;;;;;;6182257;23;20434;-91
2023/05/26 23:55:46;;;;;;;21.20;12.05;;;19.00;99.90;;;;;;6181519;23;20442;-92
2023/05/26 23:58:15;;;;;;;23.42;12.75;;;19.00;99.90;;;;;;6166849;23;20008;-93
